KCFV

Coffeyville Municipal Airport

Coffeyville, Kansas, USA
METAR KCFV 190452Z AUTO 15006KT 10SM CLR 06/04 A2995 RMK AO2 SLP143 T00610044
Observed Flight Rules
Dec-19 @ 04:52 UTC (37 minutes ago) Visual Flight Rules
Wind Visibility Clouds
150° at 6 knots 10 miles
  • Clear skies
Temperatures Readings
Current 6°C / 43°F
Dewpoint 4°C / 39°F
Humidity 87%
Altimeter 29.95" Hg
Pressure 1014.3 hPa
Elevation 225
METAR KCFV 190452Z AUTO 15006KT 10SM CLR 06/04 A2995 RMK AO2 SLP143 T00610044
Observed Flight Rules
Dec-19 @ 04:52 UTC
(37 minutes ago)
VFR
Wind Visibility
150° at 6 knots 10 miles
Clouds
  • Clear skies
Temperature Dewpoint
6°C / 43°F 4°C / 39°F
Humidity Altimeter Pressure
87% 29.95" Hg 1014.3 hPa